createdAt,value
2022-08-25T00:03:14.500Z,13.50
2022-08-25T00:08:18.467Z,11.70
2022-08-25T00:13:21.190Z,13.90
2022-08-25T00:18:28.570Z,9.00
2022-08-25T00:23:31.930Z,15.00
2022-08-25T00:28:36.586Z,9.90
2022-08-25T00:33:39.441Z,10.80
2022-08-25T00:38:44.044Z,9.30
2022-08-25T00:43:48.945Z,10.40
2022-08-25T00:48:58.261Z,8.70
2022-08-25T00:54:02.798Z,7.40
2022-08-25T00:59:05.933Z,9.80
2022-08-25T01:04:09.053Z,10.80
2022-08-25T01:09:14.150Z,11.80
2022-08-25T01:14:19.965Z,13.20
2022-08-25T01:19:22.721Z,9.10
2022-08-25T01:24:44.235Z,12.20
2022-08-25T01:29:46.967Z,9.70
2022-08-25T01:34:49.881Z,14.30
2022-08-25T01:39:55.102Z,13.20
2022-08-25T01:44:57.859Z,11.90
2022-08-25T01:50:00.643Z,9.10
2022-08-25T01:55:05.279Z,9.30
2022-08-25T02:00:12.830Z,11.00
2022-08-25T02:05:18.487Z,12.60
2022-08-25T02:10:25.640Z,9.00
2022-08-25T02:15:28.525Z,9.80
2022-08-25T02:20:31.307Z,8.10
2022-08-25T02:25:34.409Z,9.30
2022-08-25T02:30:39.053Z,9.70
2022-08-25T02:35:42.381Z,12.80
2022-08-25T02:40:45.107Z,10.80
2022-08-25T02:45:48.157Z,8.30
2022-08-25T02:50:52.940Z,10.40
2022-08-25T02:55:55.985Z,9.10
2022-08-25T03:00:58.740Z,9.60
2022-08-25T03:06:02.593Z,11.70
2022-08-25T03:11:06.513Z,9.30
2022-08-25T03:16:11.453Z,10.10
2022-08-25T03:21:16.477Z,11.70
2022-08-25T03:26:49.331Z,10.90
2022-08-25T03:31:54.937Z,13.20
2022-08-25T03:36:58.934Z,10.30
2022-08-25T03:42:03.166Z,10.10
2022-08-25T03:47:07.252Z,13.40
2022-08-25T03:52:10.570Z,10.70
2022-08-25T03:57:13.604Z,12.60
2022-08-25T04:02:16.337Z,11.60
2022-08-25T04:07:20.038Z,15.80
2022-08-25T04:12:23.926Z,12.60
2022-08-25T04:17:26.924Z,11.40
2022-08-25T04:22:31.170Z,12.50
2022-08-25T04:27:37.614Z,9.20
2022-08-25T04:32:40.408Z,11.40
2022-08-25T04:37:43.309Z,13.60
2022-08-25T04:42:48.057Z,13.00
2022-08-25T04:47:54.845Z,13.60
2022-08-25T04:52:58.706Z,11.10
2022-08-25T04:58:01.568Z,8.60
2022-08-25T05:03:05.976Z,14.50
2022-08-25T05:08:08.927Z,10.00
2022-08-25T05:13:11.829Z,11.60
2022-08-25T05:18:14.737Z,12.70
2022-08-25T05:23:17.832Z,20.60
2022-08-25T05:28:21.171Z,15.60
2022-08-25T05:33:24.017Z,16.20
2022-08-25T05:38:27.450Z,10.80
2022-08-25T05:43:31.105Z,13.00
2022-08-25T05:48:34.416Z,13.30
2022-08-25T05:53:39.245Z,11.10
2022-08-25T05:58:43.575Z,18.80
2022-08-25T06:03:47.831Z,18.00
2022-08-25T06:08:50.689Z,14.50
2022-08-25T06:13:54.271Z,14.90
2022-08-25T06:18:57.043Z,17.50
2022-08-25T06:23:59.986Z,16.90
2022-08-25T06:29:03.957Z,13.60
2022-08-25T06:34:06.805Z,9.90
2022-08-25T06:39:10.586Z,13.10
2022-08-25T06:44:13.490Z,8.80
2022-08-25T06:49:16.234Z,9.80
2022-08-25T06:54:18.943Z,10.90
2022-08-25T06:59:22.381Z,14.30
2022-08-25T07:04:25.793Z,11.70
2022-08-25T07:09:28.993Z,11.80
2022-08-25T07:14:31.751Z,11.30
2022-08-25T07:19:34.834Z,7.40
2022-08-25T07:24:37.624Z,11.10
2022-08-25T07:29:42.214Z,10.20
2022-08-25T07:35:04.354Z,8.60
2022-08-25T07:40:08.347Z,8.40
2022-08-25T07:45:12.652Z,6.90
2022-08-25T07:50:15.411Z,9.10
2022-08-25T07:55:18.460Z,9.90
2022-08-25T08:00:32.173Z,9.50
2022-08-25T08:05:37.454Z,12.00
2022-08-25T08:11:04.030Z,9.60
2022-08-25T08:16:09.948Z,10.10
2022-08-25T08:21:19.230Z,9.00
2022-08-25T08:26:36.526Z,11.50
2022-08-25T08:31:48.648Z,15.40
2022-08-25T08:36:52.090Z,8.70
2022-08-25T08:42:19.246Z,8.80
2022-08-25T08:47:35.847Z,9.20
2022-08-25T08:52:48.779Z,8.30
2022-08-25T08:57:55.795Z,10.50
2022-08-25T09:03:07.700Z,13.00
2022-08-25T09:08:13.775Z,8.00
2022-08-25T09:14:00.419Z,9.40
2022-08-25T09:19:32.149Z,7.50
2022-08-25T09:24:52.669Z,12.00
2022-08-25T09:30:10.199Z,13.00
2022-08-25T09:35:26.344Z,8.60
2022-08-25T09:40:35.451Z,11.30
2022-08-25T09:45:46.425Z,8.80
2022-08-25T09:50:51.438Z,11.10
2022-08-25T09:56:04.705Z,9.30
2022-08-25T10:01:25.790Z,13.10
2022-08-25T10:06:43.532Z,12.90
2022-08-25T10:11:48.509Z,10.50
2022-08-25T10:16:53.469Z,9.70
2022-08-25T10:22:12.827Z,11.20
2022-08-25T10:27:39.504Z,9.00
2022-08-25T10:32:52.099Z,11.60
2022-08-25T10:37:59.070Z,11.90
2022-08-25T10:43:43.689Z,9.60
2022-08-25T10:49:10.631Z,11.30
2022-08-25T10:54:52.027Z,15.10
2022-08-25T11:00:14.118Z,9.80
2022-08-25T11:05:31.186Z,12.80
2022-08-25T11:11:02.662Z,15.70
2022-08-25T11:16:19.208Z,15.40
2022-08-25T11:21:48.846Z,11.30
2022-08-25T11:26:56.281Z,15.50
2022-08-25T11:32:02.090Z,12.20
2022-08-25T11:37:34.900Z,12.30
2022-08-25T11:43:20.270Z,24.20
2022-08-25T11:48:30.409Z,20.40
2022-08-25T11:53:37.965Z,23.20
2022-08-25T11:58:53.931Z,20.00
2022-08-25T12:04:34.057Z,14.80
2022-08-25T12:10:10.997Z,16.40
2022-08-25T12:16:00.564Z,21.50
2022-08-25T12:21:06.448Z,16.90
2022-08-25T12:26:30.326Z,11.30
2022-08-25T12:32:07.189Z,13.40
2022-08-25T12:37:15.780Z,21.90
2022-08-25T12:42:38.678Z,13.90
2022-08-25T12:47:47.613Z,14.60
2022-08-25T12:52:52.786Z,21.60
2022-08-25T12:57:59.047Z,13.90
2022-08-25T13:03:01.916Z,19.90
2022-08-25T13:08:49.600Z,15.80
2022-08-25T13:14:15.494Z,18.10
2022-08-25T13:19:20.291Z,16.00
2022-08-25T13:24:32.085Z,19.90
2022-08-25T13:29:58.357Z,13.70
2022-08-25T13:35:08.909Z,14.20
2022-08-25T13:40:27.809Z,17.00
2022-08-25T13:45:41.234Z,15.20
2022-08-25T13:50:51.629Z,18.90
2022-08-25T13:55:58.924Z,16.80
2022-08-25T14:01:23.206Z,18.50
2022-08-25T14:06:29.670Z,16.80
2022-08-25T14:11:48.703Z,15.50
2022-08-25T14:17:05.008Z,19.80
2022-08-25T14:22:19.750Z,20.30
2022-08-25T14:27:22.729Z,18.90
2022-08-25T14:32:25.488Z,15.00
2022-08-25T14:37:29.296Z,16.80
2022-08-25T14:42:35.253Z,13.40
2022-08-25T14:47:38.325Z,18.00
2022-08-25T14:52:43.548Z,17.00
2022-08-25T14:57:47.115Z,17.70
2022-08-25T15:02:51.717Z,17.50
2022-08-25T15:08:14.892Z,19.90
2022-08-25T15:13:17.852Z,17.10
2022-08-25T15:18:22.803Z,21.60
2022-08-25T15:23:26.445Z,21.70
2022-08-25T15:28:29.449Z,21.50
2022-08-25T15:33:33.712Z,14.90
2022-08-25T15:38:37.568Z,19.30
2022-08-25T15:43:40.813Z,18.80
2022-08-25T15:48:43.689Z,21.80
2022-08-25T15:53:47.128Z,18.60
2022-08-25T15:58:50.730Z,18.70
2022-08-25T16:03:54.774Z,22.90
2022-08-25T16:08:58.977Z,25.70
2022-08-25T16:14:02.525Z,18.40
2022-08-25T16:19:06.889Z,25.50
2022-08-25T16:24:09.744Z,20.20
2022-08-25T16:29:14.619Z,19.10
2022-08-25T16:34:17.352Z,19.60
2022-08-25T16:39:23.963Z,19.10
2022-08-25T16:44:27.244Z,31.50
2022-08-25T16:49:31.247Z,24.70
2022-08-25T16:54:52.392Z,26.20
2022-08-25T16:59:55.928Z,20.20
2022-08-25T17:04:59.387Z,20.10
2022-08-25T17:10:05.349Z,21.00
2022-08-25T17:15:09.421Z,20.30
2022-08-25T17:20:12.108Z,26.90
2022-08-25T17:25:14.966Z,22.60
2022-08-25T17:30:17.795Z,27.20
2022-08-25T17:35:20.851Z,22.40
2022-08-25T17:40:24.938Z,25.70
2022-08-25T17:45:29.786Z,18.90
2022-08-25T17:50:36.304Z,26.90
2022-08-25T17:55:43.142Z,23.20
2022-08-25T18:00:47.099Z,20.80
2022-08-25T18:05:50.407Z,21.20
2022-08-25T18:10:53.215Z,25.10
2022-08-25T18:15:55.986Z,23.20
2022-08-25T18:20:58.790Z,21.50
2022-08-25T18:26:02.645Z,20.30
2022-08-25T18:31:05.847Z,19.60
2022-08-25T18:36:11.211Z,21.40
2022-08-25T18:41:14.025Z,22.40
2022-08-25T18:46:17.142Z,26.90
2022-08-25T18:51:26.251Z,20.00
2022-08-25T18:56:30.250Z,25.90
2022-08-25T19:01:33.078Z,21.00
2022-08-25T19:06:37.722Z,20.40
2022-08-25T19:11:40.592Z,28.40
2022-08-25T19:16:44.390Z,19.50
2022-08-25T19:21:48.241Z,21.70
2022-08-25T19:26:54.567Z,21.20
2022-08-25T19:32:01.170Z,19.80
2022-08-25T19:37:06.076Z,26.20
2022-08-25T19:42:35.098Z,25.10
2022-08-25T19:47:33.090Z,33.10
2022-08-25T19:52:37.166Z,24.80
2022-08-25T19:57:42.630Z,27.40
2022-08-25T20:02:47.291Z,24.50
2022-08-25T20:07:54.068Z,20.30
2022-08-25T20:12:56.860Z,23.80
2022-08-25T20:18:00.990Z,20.20
2022-08-25T20:23:24.316Z,24.00
2022-08-25T20:28:27.059Z,19.60
2022-08-25T20:33:30.635Z,32.60
2022-08-25T20:38:33.665Z,21.70
2022-08-25T20:43:36.363Z,20.80
2022-08-25T20:48:39.290Z,18.20
2022-08-25T20:53:43.944Z,24.80
2022-08-25T20:58:48.683Z,27.00
2022-08-25T21:03:51.419Z,24.20
2022-08-25T21:08:54.629Z,28.00
2022-08-25T21:13:58.884Z,20.90
2022-08-25T21:19:02.463Z,26.60
2022-08-25T21:24:09.701Z,25.80
2022-08-25T21:29:15.245Z,23.90
2022-08-25T21:34:20.088Z,24.80
2022-08-25T21:39:26.451Z,23.10
2022-08-25T21:44:30.257Z,23.20
2022-08-25T21:49:37.324Z,24.80
2022-08-25T21:54:40.812Z,27.00
2022-08-25T21:59:43.955Z,30.10
2022-08-25T22:04:48.789Z,30.30
2022-08-25T22:09:52.057Z,27.60
2022-08-25T22:14:55.612Z,25.60
2022-08-25T22:19:58.993Z,23.30
2022-08-25T22:25:01.906Z,25.20
2022-08-25T22:30:05.706Z,25.30
2022-08-25T22:35:09.515Z,22.40
2022-08-25T22:40:13.254Z,29.50
2022-08-25T22:45:17.537Z,27.10
2022-08-25T22:50:20.456Z,28.00
2022-08-25T22:55:23.804Z,23.80
2022-08-25T23:00:27.416Z,24.70
2022-08-25T23:05:30.273Z,26.90
2022-08-25T23:10:34.592Z,27.30
2022-08-25T23:15:38.108Z,24.70
2022-08-25T23:20:59.801Z,27.70
2022-08-25T23:26:05.340Z,28.10
2022-08-25T23:31:09.549Z,34.30
2022-08-25T23:36:15.955Z,22.30
2022-08-25T23:41:23.201Z,25.30
2022-08-25T23:46:29.129Z,29.30
2022-08-25T23:51:34.229Z,23.00
2022-08-25T23:56:44.700Z,20.10
